Seabourn Pride — C6FR5 — position and weather

sailwx.info

Track history (hours):
 
Tides and Currents Weather Stations Pressure Air Temp Water Temp Dewpoint Dewpoint Depression Visibility Wind Speed Wind Dir Waves Ship Positions

Seabourn Pride

Operator: Cunard Seabourn

Last reported at 2018-Jun-21 21:22 UTC. Time now 2018-Jun-22 09:06 UTC.
Position N 58°28' W 002°53'.

Length 134 m; draft 5.7 m.

Type: Passenger vessel. MMSI: 311084000.

Date/timePositionNaut miles runAvg speedWind from/ knotsBaromVisibWave heightAir tempDewpointWater temp
2018-Jun-21 21:22N 58°28' W 002°53'3 9.3
2018-Jun-21 21:00N 58°31' W 002°51'5 9.2
2018-Jun-21 20:29N 58°35' W 002°48'5 9.8
2018-Jun-21 20:00N 58°40' W 002°45'1910.3
2018-Jun-21 18:07N 58°59' W 002°40'111.0
2018-Jun-21 18:00N 58°60' W 002°42'510.6
2018-Jun-21 17:30N 59°01' W 002°52'3 6.2
2018-Jun-21 16:59N 59°00' W 002°58'0 0.0
2018-Jun-21 16:26N 59°00' W 002°58'0 0.0
2018-Jun-21 15:59N 59°00' W 002°58'0 0.0
2018-Jun-21 15:29N 59°00' W 002°58'0 0.0
2018-Jun-21 14:59N 59°00' W 002°58'0 0.0
2018-Jun-21 14:29N 59°00' W 002°58'0 0.0
2018-Jun-21 13:59N 59°00' W 002°58'0 0.0
2018-Jun-21 13:29N 59°00' W 002°58'0 0.0
2018-Jun-21 12:59N 59°00' W 002°58'0 0.0
2018-Jun-21 12:29N 59°00' W 002°58'0 0.0
2018-Jun-21 11:59N 59°00' W 002°58'0 0.0
2018-Jun-21 11:29N 59°00' W 002°58'0 0.0
2018-Jun-21 10:59N 59°00' W 002°58'0 0.0
2018-Jun-21 10:29N 59°00' W 002°58'0 0.0
2018-Jun-21 09:59N 59°00' W 002°58'0 0.0
2018-Jun-21 09:29N 59°00' W 002°58'0 0.0
2018-Jun-21 08:50N 59°00' W 002°58'0 0.0
2018-Jun-21 08:29N 59°00' W 002°58'0 0.0
2018-Jun-21 07:53N 59°00' W 002°58'0 0.0
2018-Jun-21 07:29N 59°00' W 002°58'0 0.0
2018-Jun-21 06:59N 59°00' W 002°58'0 0.0
2018-Jun-21 06:29N 59°00' W 002°58'0 0.5
2018-Jun-21 06:00N 58°60' W 002°58'3 6.5
2018-Jun-21 05:30N 59°01' W 002°52'4 7.0
2018-Jun-21 05:00N 58°60' W 002°45'4 7.1
2018-Jun-21 04:30N 58°58' W 002°40'15 9.5
2018-Jun-21 02:57N 58°44' W 002°51'613.4
2018-Jun-21 02:30N 58°43' W 003°02'815.9
2018-Jun-21 02:00N 58°43' W 003°17'6213.7
2018-Jun-20 21:27N 58°30' W 005°15'164 3.7
2018-Jun-19 01:27N 55°54' W 006°44'410.2
2018-Jun-19 01:00N 55°49' W 006°43'5 9.5
2018-Jun-19 00:31N 55°44' W 006°43'4 8.9
2018-Jun-19 00:00N 55°40' W 006°42'4 8.8
2018-Jun-18 23:30N 55°36' W 006°41'5 9.7
2018-Jun-18 23:00N 55°31' W 006°40'5 9.3
2018-Jun-18 22:30N 55°26' W 006°38'510.2
2018-Jun-18 22:00N 55°21' W 006°38'510.6
2018-Jun-18 21:30N 55°16' W 006°37'3 5.9
2018-Jun-18 21:00N 55°13' W 006°39'0 0.1
2018-Jun-18 20:30N 55°13' W 006°38'0 0.1
2018-Jun-18 20:00N 55°13' W 006°38'0 0.2
2018-Jun-18 19:30N 55°13' W 006°38'0 0.1
2018-Jun-18 19:00N 55°13' W 006°38'0 0.1
2018-Jun-18 18:30N 55°13' W 006°39'0 0.0
2018-Jun-18 18:00N 55°13' W 006°39'0 0.1
2018-Jun-18 17:30N 55°13' W 006°38'0 0.1
2018-Jun-18 16:59N 55°13' W 006°38'0 0.0
2018-Jun-18 16:29N 55°13' W 006°38'0 0.2
2018-Jun-18 15:59N 55°13' W 006°38'0 0.0
2018-Jun-18 15:29N 55°13' W 006°38'0 0.0
2018-Jun-18 14:59N 55°13' W 006°38'0 0.0
2018-Jun-18 14:29N 55°13' W 006°38'0 0.0
2018-Jun-18 13:59N 55°13' W 006°38'0 0.1
2018-Jun-18 13:29N 55°13' W 006°38'0 0.1
2018-Jun-18 12:59N 55°13' W 006°38'0 0.1
2018-Jun-18 12:29N 55°13' W 006°38'0 0.0
2018-Jun-18 11:59N 55°13' W 006°38'0 0.0
2018-Jun-18 11:23N 55°13' W 006°39'0 0.1
2018-Jun-18 10:58N 55°13' W 006°39'0 0.0
2018-Jun-18 10:28N 55°13' W 006°39'0 0.1
2018-Jun-18 09:58N 55°13' W 006°39'0 0.0
2018-Jun-18 09:28N 55°13' W 006°39'0 0.1
2018-Jun-18 08:58N 55°13' W 006°39'0 0.1
2018-Jun-18 08:28N 55°13' W 006°39'0 0.1
2018-Jun-18 07:58N 55°13' W 006°39'0 0.1
2018-Jun-18 07:28N 55°13' W 006°39'0 0.1
2018-Jun-18 06:58N 55°13' W 006°39'0 0.2
2018-Jun-18 06:30N 55°13' W 006°39'1 1.4
2018-Jun-18 05:59N 55°14' W 006°38'1 2.2
2018-Jun-18 05:30N 55°15' W 006°39'4 7.2
2018-Jun-18 04:59N 55°17' W 006°34'3 7.0
2018-Jun-18 04:30N 55°19' W 006°29'4 7.3
2018-Jun-18 04:00N 55°22' W 006°24'4 7.3
2018-Jun-18 03:30N 55°24' W 006°19'3 6.8
2018-Jun-18 03:00N 55°25' W 006°14'5 9.1
2018-Jun-18 02:30N 55°24' W 006°06'4 8.0
2018-Jun-18 01:59N 55°22' W 006°00'4 7.7
2018-Jun-18 01:30N 55°19' W 005°56'5 8.9
2018-Jun-18 01:00N 55°15' W 005°52'4 8.4
2018-Jun-18 00:29N 55°11' W 005°49'5 9.3
2018-Jun-17 23:59N 55°07' W 005°45'12 9.1
2018-Jun-17 22:37N 54°57' W 005°33'2 9.4
2018-Jun-17 22:26N 54°55' W 005°31'4 9.3
2018-Jun-17 22:00N 54°52' W 005°28'5 9.4
2018-Jun-17 21:30N 54°48' W 005°23'5 9.7
2018-Jun-17 21:00N 54°43' W 005°20'510.2
2018-Jun-17 20:30N 54°39' W 005°17'510.6
2018-Jun-17 20:00N 54°34' W 005°12'511.0
2018-Jun-17 19:30N 54°29' W 005°08'611.2
2018-Jun-17 19:00N 54°24' W 005°05'611.0
2018-Jun-17 18:27N 54°18' W 005°03'168 3.4
2018-Jun-15 17:06N 51°32' W 005°50'111.5
2018-Jun-15 17:00N 51°31' W 005°50'226 6.6
2018-Jun-14 06:52N 48°38' W 002°02'0 0.0
2018-Jun-14 04:31N 48°38' W 002°02'0 0.8
2018-Jun-14 04:29N 48°38' W 002°02'5 9.9
2018-Jun-14 03:57N 48°42' W 002°07'7 8.9
2018-Jun-14 03:10N 48°46' W 002°16'411.9
2018-Jun-14 02:51N 48°48' W 002°22'615.5
2018-Jun-14 02:28N 48°51' W 002°29'715.2
2018-Jun-14 02:00N 48°54' W 002°39'714.5
2018-Jun-14 01:30N 48°57' W 002°49'713.4
2018-Jun-14 01:00N 49°00' W 002°58'612.2
2018-Jun-14 00:31N 49°00' W 003°07'510.7
2018-Jun-14 00:00N 49°01' W 003°15'5 7.7
2018-Jun-13 23:25N 49°01' W 003°22'3 5.9
2018-Jun-13 23:00N 49°00' W 003°26'48 9.0
2018-Jun-13 17:42N 49°00' W 004°39'311.4
2018-Jun-13 17:23N 48°60' W 004°44'1911.7
2018-Jun-13 15:46N 48°55' W 005°12'613.6
2018-Jun-13 15:21N 48°52' W 005°19'513.9
2018-Jun-13 15:01N 48°49' W 005°25'45 9.5
2018-Jun-13 10:12N 48°04' W 005°17'211.8
2018-Jun-13 10:00N 48°03' W 005°14'611.9
2018-Jun-13 09:30N 47°59' W 005°07'611.9
2018-Jun-13 09:00N 47°55' W 005°00'611.8
2018-Jun-13 08:30N 47°52' W 004°53'611.8
2018-Jun-13 08:00N 47°48' W 004°46'1411.7
2018-Jun-13 06:47N 47°39' W 004°30'311.9
2018-Jun-13 06:30N 47°37' W 004°26'1011.4
2018-Jun-13 05:36N 47°30' W 004°14'111.3
2018-Jun-13 05:28N 47°30' W 004°12'510.6
2018-Jun-13 05:00N 47°27' W 004°06'610.3
2018-Jun-13 04:27N 47°23' W 003°60'610.3
2018-Jun-13 03:53N 47°19' W 003°54'410.7
2018-Jun-13 03:30N 47°16' W 003°49'5 9.2
2018-Jun-13 03:00N 47°14' W 003°43'5 9.9
2018-Jun-13 02:30N 47°11' W 003°38'5 9.9
2018-Jun-13 01:59N 47°08' W 003°32'610.2
2018-Jun-13 01:26N 47°04' W 003°26'510.2
2018-Jun-13 00:56N 47°01' W 003°20'610.3
2018-Jun-13 00:21N 46°57' W 003°13'410.4
2018-Jun-13 00:00N 46°55' W 003°09'510.1
2018-Jun-12 23:30N 46°52' W 003°03'510.2
2018-Jun-12 23:00N 46°49' W 002°57'3110.4
2018-Jun-12 20:05N 46°30' W 002°22'1 9.5
2018-Jun-12 20:00N 46°30' W 002°21'4 9.0
2018-Jun-12 19:30N 46°27' W 002°16'612.3
2018-Jun-12 19:00N 46°23' W 002°09'612.0
2018-Jun-12 18:30N 46°19' W 002°03'612.1
2018-Jun-12 18:00N 46°15' W 001°56'611.7
2018-Jun-12 17:30N 46°12' W 001°49'611.4
2018-Jun-12 17:00N 46°09' W 001°42'611.6
2018-Jun-12 16:30N 46°07' W 001°34'612.3
2018-Jun-12 16:00N 46°07' W 001°25'612.5
2018-Jun-12 15:31N 46°06' W 001°16'4 7.9
2018-Jun-12 14:58N 46°10' W 001°14'0 0.0
2018-Jun-12 14:28N 46°10' W 001°14'0 0.0
2018-Jun-12 13:58N 46°10' W 001°14'0 0.0
2018-Jun-12 13:28N 46°10' W 001°14'0 0.0
2018-Jun-12 12:58N 46°10' W 001°14'0 0.0
2018-Jun-12 12:25N 46°10' W 001°14'0 0.0
2018-Jun-12 11:58N 46°10' W 001°14'0 0.0
2018-Jun-12 11:28N 46°10' W 001°14'0 0.0
2018-Jun-12 10:58N 46°10' W 001°14'0 0.0
2018-Jun-12 10:28N 46°10' W 001°14'0 0.0
2018-Jun-12 09:58N 46°10' W 001°14'0 0.0
2018-Jun-12 09:30N 46°10' W 001°14'0 0.0
2018-Jun-12 09:00N 46°10' W 001°14'0 0.0
2018-Jun-12 08:30N 46°10' W 001°14'0 0.0
2018-Jun-12 08:00N 46°10' W 001°14'0 0.0
2018-Jun-12 07:30N 46°10' W 001°14'0 0.0
2018-Jun-12 07:00N 46°10' W 001°14'0 0.0
2018-Jun-12 06:30N 46°10' W 001°14'0 0.0
2018-Jun-12 05:59N 46°10' W 001°14'0 0.0
2018-Jun-12 05:30N 46°10' W 001°14'0 0.5
2018-Jun-12 05:01N 46°09' W 001°15'4 8.1
2018-Jun-12 04:30N 46°06' W 001°17'3 7.0
2018-Jun-12 04:00N 46°06' W 001°22'3 6.2
2018-Jun-12 03:30N 46°06' W 001°26'3 6.4
2018-Jun-12 03:00N 46°07' W 001°31'3 6.7
2018-Jun-12 02:30N 46°07' W 001°36'3 6.5
2018-Jun-12 02:00N 46°08' W 001°40'3 6.4
2018-Jun-12 01:30N 46°07' W 001°45'4 6.6
2018-Jun-12 00:58N 46°04' W 001°48'3 7.4
2018-Jun-12 00:30N 46°00' W 001°46'5 9.1
2018-Jun-11 23:59N 45°56' W 001°44'  
Track history (hours):
 
Tides and Currents Weather Stations Pressure Air Temp Water Temp Dewpoint Dewpoint Depression Visibility Wind Speed Wind Dir Waves Ship Positions

Seabourn Pride

Operator: Cunard Seabourn

Last reported at 2018-Jun-21 21:22 UTC. Time now 2018-Jun-22 09:06 UTC.
Position N 58°28' W 002°53'.

Length 134 m; draft 5.7 m.

Type: Passenger vessel. MMSI: 311084000.

Date/timePositionNaut miles runAvg speedWind from/ knotsBaromVisibWave heightAir tempDewpointWater temp
2018-Jun-21 21:22N 58°28' W 002°53'3 9.3
2018-Jun-21 21:00N 58°31' W 002°51'5 9.2
2018-Jun-21 20:29N 58°35' W 002°48'5 9.8
2018-Jun-21 20:00N 58°40' W 002°45'1910.3
2018-Jun-21 18:07N 58°59' W 002°40'111.0
2018-Jun-21 18:00N 58°60' W 002°42'510.6
2018-Jun-21 17:30N 59°01' W 002°52'3 6.2
2018-Jun-21 16:59N 59°00' W 002°58'0 0.0
2018-Jun-21 16:26N 59°00' W 002°58'0 0.0
2018-Jun-21 15:59N 59°00' W 002°58'0 0.0
2018-Jun-21 15:29N 59°00' W 002°58'0 0.0
2018-Jun-21 14:59N 59°00' W 002°58'0 0.0
2018-Jun-21 14:29N 59°00' W 002°58'0 0.0
2018-Jun-21 13:59N 59°00' W 002°58'0 0.0
2018-Jun-21 13:29N 59°00' W 002°58'0 0.0
2018-Jun-21 12:59N 59°00' W 002°58'0 0.0
2018-Jun-21 12:29N 59°00' W 002°58'0 0.0
2018-Jun-21 11:59N 59°00' W 002°58'0 0.0
2018-Jun-21 11:29N 59°00' W 002°58'0 0.0
2018-Jun-21 10:59N 59°00' W 002°58'0 0.0
2018-Jun-21 10:29N 59°00' W 002°58'0 0.0
2018-Jun-21 09:59N 59°00' W 002°58'0 0.0
2018-Jun-21 09:29N 59°00' W 002°58'0 0.0
2018-Jun-21 08:50N 59°00' W 002°58'0 0.0
2018-Jun-21 08:29N 59°00' W 002°58'0 0.0
2018-Jun-21 07:53N 59°00' W 002°58'0 0.0
2018-Jun-21 07:29N 59°00' W 002°58'0 0.0
2018-Jun-21 06:59N 59°00' W 002°58'0 0.0
2018-Jun-21 06:29N 59°00' W 002°58'0 0.5
2018-Jun-21 06:00N 58°60' W 002°58'3 6.5
2018-Jun-21 05:30N 59°01' W 002°52'4 7.0
2018-Jun-21 05:00N 58°60' W 002°45'4 7.1
2018-Jun-21 04:30N 58°58' W 002°40'15 9.5
2018-Jun-21 02:57N 58°44' W 002°51'613.4
2018-Jun-21 02:30N 58°43' W 003°02'815.9
2018-Jun-21 02:00N 58°43' W 003°17'6213.7
2018-Jun-20 21:27N 58°30' W 005°15'164 3.7
2018-Jun-19 01:27N 55°54' W 006°44'410.2
2018-Jun-19 01:00N 55°49' W 006°43'5 9.5
2018-Jun-19 00:31N 55°44' W 006°43'4 8.9
2018-Jun-19 00:00N 55°40' W 006°42'4 8.8
2018-Jun-18 23:30N 55°36' W 006°41'5 9.7
2018-Jun-18 23:00N 55°31' W 006°40'5 9.3
2018-Jun-18 22:30N 55°26' W 006°38'510.2
2018-Jun-18 22:00N 55°21' W 006°38'510.6
2018-Jun-18 21:30N 55°16' W 006°37'3 5.9
2018-Jun-18 21:00N 55°13' W 006°39'0 0.1
2018-Jun-18 20:30N 55°13' W 006°38'0 0.1
2018-Jun-18 20:00N 55°13' W 006°38'0 0.2
2018-Jun-18 19:30N 55°13' W 006°38'0 0.1
2018-Jun-18 19:00N 55°13' W 006°38'0 0.1
2018-Jun-18 18:30N 55°13' W 006°39'0 0.0
2018-Jun-18 18:00N 55°13' W 006°39'0 0.1
2018-Jun-18 17:30N 55°13' W 006°38'0 0.1
2018-Jun-18 16:59N 55°13' W 006°38'0 0.0
2018-Jun-18 16:29N 55°13' W 006°38'0 0.2
2018-Jun-18 15:59N 55°13' W 006°38'0 0.0
2018-Jun-18 15:29N 55°13' W 006°38'0 0.0
2018-Jun-18 14:59N 55°13' W 006°38'0 0.0
2018-Jun-18 14:29N 55°13' W 006°38'0 0.0
2018-Jun-18 13:59N 55°13' W 006°38'0 0.1
2018-Jun-18 13:29N 55°13' W 006°38'0 0.1
2018-Jun-18 12:59N 55°13' W 006°38'0 0.1
2018-Jun-18 12:29N 55°13' W 006°38'0 0.0
2018-Jun-18 11:59N 55°13' W 006°38'0 0.0
2018-Jun-18 11:23N 55°13' W 006°39'0 0.1
2018-Jun-18 10:58N 55°13' W 006°39'0 0.0
2018-Jun-18 10:28N 55°13' W 006°39'0 0.1
2018-Jun-18 09:58N 55°13' W 006°39'0 0.0
2018-Jun-18 09:28N 55°13' W 006°39'0 0.1
2018-Jun-18 08:58N 55°13' W 006°39'0 0.1
2018-Jun-18 08:28N 55°13' W 006°39'0 0.1
2018-Jun-18 07:58N 55°13' W 006°39'0 0.1
2018-Jun-18 07:28N 55°13' W 006°39'0 0.1
2018-Jun-18 06:58N 55°13' W 006°39'0 0.2
2018-Jun-18 06:30N 55°13' W 006°39'1 1.4
2018-Jun-18 05:59N 55°14' W 006°38'1 2.2
2018-Jun-18 05:30N 55°15' W 006°39'4 7.2
2018-Jun-18 04:59N 55°17' W 006°34'3 7.0
2018-Jun-18 04:30N 55°19' W 006°29'4 7.3
2018-Jun-18 04:00N 55°22' W 006°24'4 7.3
2018-Jun-18 03:30N 55°24' W 006°19'3 6.8
2018-Jun-18 03:00N 55°25' W 006°14'5 9.1
2018-Jun-18 02:30N 55°24' W 006°06'4 8.0
2018-Jun-18 01:59N 55°22' W 006°00'4 7.7
2018-Jun-18 01:30N 55°19' W 005°56'5 8.9
2018-Jun-18 01:00N 55°15' W 005°52'4 8.4
2018-Jun-18 00:29N 55°11' W 005°49'5 9.3
2018-Jun-17 23:59N 55°07' W 005°45'12 9.1
2018-Jun-17 22:37N 54°57' W 005°33'2 9.4
2018-Jun-17 22:26N 54°55' W 005°31'4 9.3
2018-Jun-17 22:00N 54°52' W 005°28'5 9.4
2018-Jun-17 21:30N 54°48' W 005°23'5 9.7
2018-Jun-17 21:00N 54°43' W 005°20'510.2
2018-Jun-17 20:30N 54°39' W 005°17'510.6
2018-Jun-17 20:00N 54°34' W 005°12'511.0
2018-Jun-17 19:30N 54°29' W 005°08'611.2
2018-Jun-17 19:00N 54°24' W 005°05'611.0
2018-Jun-17 18:27N 54°18' W 005°03'168 3.4
2018-Jun-15 17:06N 51°32' W 005°50'111.5
2018-Jun-15 17:00N 51°31' W 005°50'226 6.6
2018-Jun-14 06:52N 48°38' W 002°02'0 0.0
2018-Jun-14 04:31N 48°38' W 002°02'0 0.8
2018-Jun-14 04:29N 48°38' W 002°02'5 9.9
2018-Jun-14 03:57N 48°42' W 002°07'7 8.9
2018-Jun-14 03:10N 48°46' W 002°16'411.9
2018-Jun-14 02:51N 48°48' W 002°22'615.5
2018-Jun-14 02:28N 48°51' W 002°29'715.2
2018-Jun-14 02:00N 48°54' W 002°39'714.5
2018-Jun-14 01:30N 48°57' W 002°49'713.4
2018-Jun-14 01:00N 49°00' W 002°58'612.2
2018-Jun-14 00:31N 49°00' W 003°07'510.7
2018-Jun-14 00:00N 49°01' W 003°15'5 7.7
2018-Jun-13 23:25N 49°01' W 003°22'3 5.9
2018-Jun-13 23:00N 49°00' W 003°26'48 9.0
2018-Jun-13 17:42N 49°00' W 004°39'311.4
2018-Jun-13 17:23N 48°60' W 004°44'1911.7
2018-Jun-13 15:46N 48°55' W 005°12'613.6
2018-Jun-13 15:21N 48°52' W 005°19'513.9
2018-Jun-13 15:01N 48°49' W 005°25'45 9.5
2018-Jun-13 10:12N 48°04' W 005°17'211.8
2018-Jun-13 10:00N 48°03' W 005°14'611.9
2018-Jun-13 09:30N 47°59' W 005°07'611.9
2018-Jun-13 09:00N 47°55' W 005°00'611.8
2018-Jun-13 08:30N 47°52' W 004°53'611.8
2018-Jun-13 08:00N 47°48' W 004°46'1411.7
2018-Jun-13 06:47N 47°39' W 004°30'311.9
2018-Jun-13 06:30N 47°37' W 004°26'1011.4
2018-Jun-13 05:36N 47°30' W 004°14'111.3
2018-Jun-13 05:28N 47°30' W 004°12'510.6
2018-Jun-13 05:00N 47°27' W 004°06'610.3
2018-Jun-13 04:27N 47°23' W 003°60'610.3
2018-Jun-13 03:53N 47°19' W 003°54'410.7
2018-Jun-13 03:30N 47°16' W 003°49'5 9.2
2018-Jun-13 03:00N 47°14' W 003°43'5 9.9
2018-Jun-13 02:30N 47°11' W 003°38'5 9.9
2018-Jun-13 01:59N 47°08' W 003°32'610.2
2018-Jun-13 01:26N 47°04' W 003°26'510.2
2018-Jun-13 00:56N 47°01' W 003°20'610.3
2018-Jun-13 00:21N 46°57' W 003°13'410.4
2018-Jun-13 00:00N 46°55' W 003°09'510.1
2018-Jun-12 23:30N 46°52' W 003°03'510.2
2018-Jun-12 23:00N 46°49' W 002°57'3110.4
2018-Jun-12 20:05N 46°30' W 002°22'1 9.5
2018-Jun-12 20:00N 46°30' W 002°21'4 9.0
2018-Jun-12 19:30N 46°27' W 002°16'612.3
2018-Jun-12 19:00N 46°23' W 002°09'612.0
2018-Jun-12 18:30N 46°19' W 002°03'612.1
2018-Jun-12 18:00N 46°15' W 001°56'611.7
2018-Jun-12 17:30N 46°12' W 001°49'611.4
2018-Jun-12 17:00N 46°09' W 001°42'611.6
2018-Jun-12 16:30N 46°07' W 001°34'612.3
2018-Jun-12 16:00N 46°07' W 001°25'612.5
2018-Jun-12 15:31N 46°06' W 001°16'4 7.9
2018-Jun-12 14:58N 46°10' W 001°14'0 0.0
2018-Jun-12 14:28N 46°10' W 001°14'0 0.0
2018-Jun-12 13:58N 46°10' W 001°14'0 0.0
2018-Jun-12 13:28N 46°10' W 001°14'0 0.0
2018-Jun-12 12:58N 46°10' W 001°14'0 0.0
2018-Jun-12 12:25N 46°10' W 001°14'0 0.0
2018-Jun-12 11:58N 46°10' W 001°14'0 0.0
2018-Jun-12 11:28N 46°10' W 001°14'0 0.0
2018-Jun-12 10:58N 46°10' W 001°14'0 0.0
2018-Jun-12 10:28N 46°10' W 001°14'0 0.0
2018-Jun-12 09:58N 46°10' W 001°14'0 0.0
2018-Jun-12 09:30N 46°10' W 001°14'0 0.0
2018-Jun-12 09:00N 46°10' W 001°14'0 0.0
2018-Jun-12 08:30N 46°10' W 001°14'0 0.0
2018-Jun-12 08:00N 46°10' W 001°14'0 0.0
2018-Jun-12 07:30N 46°10' W 001°14'0 0.0
2018-Jun-12 07:00N 46°10' W 001°14'0 0.0
2018-Jun-12 06:30N 46°10' W 001°14'0 0.0
2018-Jun-12 05:59N 46°10' W 001°14'0 0.0
2018-Jun-12 05:30N 46°10' W 001°14'0 0.5
2018-Jun-12 05:01N 46°09' W 001°15'4 8.1
2018-Jun-12 04:30N 46°06' W 001°17'3 7.0
2018-Jun-12 04:00N 46°06' W 001°22'3 6.2
2018-Jun-12 03:30N 46°06' W 001°26'3 6.4
2018-Jun-12 03:00N 46°07' W 001°31'3 6.7
2018-Jun-12 02:30N 46°07' W 001°36'3 6.5
2018-Jun-12 02:00N 46°08' W 001°40'3 6.4
2018-Jun-12 01:30N 46°07' W 001°45'4 6.6
2018-Jun-12 00:58N 46°04' W 001°48'3 7.4
2018-Jun-12 00:30N 46°00' W 001°46'5 9.1
2018-Jun-11 23:59N 45°56' W 001°44'  

Dump ship's entire track history